sensor_id;sensor_type;location;lat;lon;timestamp;P1;durP1;ratioP1;P2;durP2;ratioP2
6955;SDS011;50345;51.136;16.886;2022-12-18T00:01:17;44.00;;;23.92;;
6955;SDS011;50345;51.136;16.886;2022-12-18T00:03:44;40.67;;;20.23;;
6955;SDS011;50345;51.136;16.886;2022-12-18T00:06:10;33.30;;;17.77;;
6955;SDS011;50345;51.136;16.886;2022-12-18T00:08:36;35.83;;;21.05;;
6955;SDS011;50345;51.136;16.886;2022-12-18T00:11:06;33.73;;;21.60;;
6955;SDS011;50345;51.136;16.886;2022-12-18T00:13:35;40.05;;;22.92;;
6955;SDS011;50345;51.136;16.886;2022-12-18T00:16:04;35.60;;;20.30;;
6955;SDS011;50345;51.136;16.886;2022-12-18T00:18:49;39.03;;;20.55;;
6955;SDS011;50345;51.136;16.886;2022-12-18T00:21:16;41.95;;;20.85;;
6955;SDS011;50345;51.136;16.886;2022-12-18T00:23:43;44.55;;;20.60;;
6955;SDS011;50345;51.136;16.886;2022-12-18T00:26:17;30.00;;;18.48;;
6955;SDS011;50345;51.136;16.886;2022-12-18T00:28:45;41.47;;;24.27;;
6955;SDS011;50345;51.136;16.886;2022-12-18T00:31:12;41.90;;;21.20;;
6955;SDS011;50345;51.136;16.886;2022-12-18T00:33:42;44.97;;;23.00;;
6955;SDS011;50345;51.136;16.886;2022-12-18T00:36:09;43.10;;;20.88;;
6955;SDS011;50345;51.136;16.886;2022-12-18T00:38:37;40.13;;;20.75;;
6955;SDS011;50345;51.136;16.886;2022-12-18T00:41:03;38.00;;;21.70;;
6955;SDS011;50345;51.136;16.886;2022-12-18T00:43:31;34.72;;;18.48;;
6955;SDS011;50345;51.136;16.886;2022-12-18T00:45:57;34.03;;;19.83;;
6955;SDS011;50345;51.136;16.886;2022-12-18T00:48:22;31.20;;;17.10;;
6955;SDS011;50345;51.136;16.886;2022-12-18T00:50:48;30.37;;;17.70;;
6955;SDS011;50345;51.136;16.886;2022-12-18T00:53:14;31.30;;;17.38;;
6955;SDS011;50345;51.136;16.886;2022-12-18T00:55:40;36.63;;;19.07;;
6955;SDS011;50345;51.136;16.886;2022-12-18T00:58:07;33.95;;;18.25;;
6955;SDS011;50345;51.136;16.886;2022-12-18T01:00:33;32.25;;;16.38;;
6955;SDS011;50345;51.136;16.886;2022-12-18T01:02:59;41.13;;;18.50;;
6955;SDS011;50345;51.136;16.886;2022-12-18T01:05:24;30.50;;;18.23;;
6955;SDS011;50345;51.136;16.886;2022-12-18T01:07:50;29.73;;;17.00;;
6955;SDS011;50345;51.136;16.886;2022-12-18T01:10:16;24.53;;;13.63;;
6955;SDS011;50345;51.136;16.886;2022-12-18T01:12:42;34.38;;;18.75;;
6955;SDS011;50345;51.136;16.886;2022-12-18T01:15:09;31.03;;;17.20;;
6955;SDS011;50345;51.136;16.886;2022-12-18T01:17:36;36.05;;;16.90;;
6955;SDS011;50345;51.136;16.886;2022-12-18T01:20:02;30.43;;;17.97;;
6955;SDS011;50345;51.136;16.886;2022-12-18T01:22:28;36.38;;;18.65;;
6955;SDS011;50345;51.136;16.886;2022-12-18T01:24:53;29.73;;;16.43;;
6955;SDS011;50345;51.136;16.886;2022-12-18T01:27:19;32.90;;;16.97;;
6955;SDS011;50345;51.136;16.886;2022-12-18T01:29:45;30.77;;;15.90;;
6955;SDS011;50345;51.136;16.886;2022-12-18T01:32:10;28.80;;;16.77;;
6955;SDS011;50345;51.136;16.886;2022-12-18T01:34:36;33.93;;;16.83;;
6955;SDS011;50345;51.136;16.886;2022-12-18T01:37:05;32.22;;;16.40;;
6955;SDS011;50345;51.136;16.886;2022-12-18T01:39:31;34.72;;;18.02;;
6955;SDS011;50345;51.136;16.886;2022-12-18T01:41:57;36.13;;;17.50;;
6955;SDS011;50345;51.136;16.886;2022-12-18T01:49:53;31.80;;;15.43;;
6955;SDS011;50345;51.136;16.886;2022-12-18T01:52:20;27.38;;;15.25;;
6955;SDS011;50345;51.136;16.886;2022-12-18T01:54:47;32.03;;;17.67;;
6955;SDS011;50345;51.136;16.886;2022-12-18T01:57:15;37.72;;;19.15;;
6955;SDS011;50345;51.136;16.886;2022-12-18T01:59:41;28.40;;;16.20;;
6955;SDS011;50345;51.136;16.886;2022-12-18T02:02:10;28.08;;;18.08;;
6955;SDS011;50345;51.136;16.886;2022-12-18T02:04:36;36.67;;;16.20;;
6955;SDS011;50345;51.136;16.886;2022-12-18T02:10:10;26.15;;;13.68;;
6955;SDS011;50345;51.136;16.886;2022-12-18T02:15:40;25.50;;;15.73;;
6955;SDS011;50345;51.136;16.886;2022-12-18T02:18:28;32.97;;;16.70;;
6955;SDS011;50345;51.136;16.886;2022-12-18T02:27:00;27.17;;;16.70;;
6955;SDS011;50345;51.136;16.886;2022-12-18T02:29:31;26.33;;;14.85;;
6955;SDS011;50345;51.136;16.886;2022-12-18T02:32:02;35.33;;;17.65;;
6955;SDS011;50345;51.136;16.886;2022-12-18T02:34:32;27.95;;;16.52;;
6955;SDS011;50345;51.136;16.886;2022-12-18T02:37:02;32.42;;;18.17;;
6955;SDS011;50345;51.136;16.886;2022-12-18T02:39:30;26.63;;;15.52;;
6955;SDS011;50345;51.136;16.886;2022-12-18T02:41:58;28.85;;;16.13;;
6955;SDS011;50345;51.136;16.886;2022-12-18T02:44:27;28.95;;;14.43;;
6955;SDS011;50345;51.136;16.886;2022-12-18T02:46:53;34.93;;;17.20;;
6955;SDS011;50345;51.136;16.886;2022-12-18T02:49:22;36.65;;;16.02;;
6955;SDS011;50345;51.136;16.886;2022-12-18T02:52:07;24.20;;;15.43;;
6955;SDS011;50345;51.136;16.886;2022-12-18T02:55:05;28.98;;;18.20;;
6955;SDS011;50345;51.136;16.886;2022-12-18T03:00:48;25.23;;;13.20;;
6955;SDS011;50345;51.136;16.886;2022-12-18T03:02:56;27.70;;;14.13;;
6955;SDS011;50345;51.136;16.886;2022-12-18T03:05:38;36.53;;;17.27;;
6955;SDS011;50345;51.136;16.886;2022-12-18T03:08:17;30.15;;;18.00;;
6955;SDS011;50345;51.136;16.886;2022-12-18T03:10:51;23.63;;;15.00;;
6955;SDS011;50345;51.136;16.886;2022-12-18T03:13:43;30.13;;;15.45;;
6955;SDS011;50345;51.136;16.886;2022-12-18T03:16:15;20.98;;;12.73;;
6955;SDS011;50345;51.136;16.886;2022-12-18T03:18:50;26.58;;;14.13;;
6955;SDS011;50345;51.136;16.886;2022-12-18T03:21:21;30.27;;;17.20;;
6955;SDS011;50345;51.136;16.886;2022-12-18T03:23:51;23.80;;;14.07;;
6955;SDS011;50345;51.136;16.886;2022-12-18T03:26:19;26.67;;;14.10;;
6955;SDS011;50345;51.136;16.886;2022-12-18T03:28:53;25.73;;;15.90;;
6955;SDS011;50345;51.136;16.886;2022-12-18T03:31:31;24.45;;;12.73;;
6955;SDS011;50345;51.136;16.886;2022-12-18T03:34:03;24.75;;;13.50;;
6955;SDS011;50345;51.136;16.886;2022-12-18T03:36:33;29.27;;;15.35;;
6955;SDS011;50345;51.136;16.886;2022-12-18T03:38:59;34.55;;;16.40;;
6955;SDS011;50345;51.136;16.886;2022-12-18T03:41:30;28.30;;;16.13;;
6955;SDS011;50345;51.136;16.886;2022-12-18T03:49:25;30.48;;;16.35;;
6955;SDS011;50345;51.136;16.886;2022-12-18T03:52:09;21.75;;;13.05;;
6955;SDS011;50345;51.136;16.886;2022-12-18T03:54:38;28.02;;;15.02;;
6955;SDS011;50345;51.136;16.886;2022-12-18T03:57:07;25.67;;;14.48;;
6955;SDS011;50345;51.136;16.886;2022-12-18T03:59:38;31.52;;;15.63;;
6955;SDS011;50345;51.136;16.886;2022-12-18T04:02:05;30.63;;;16.30;;
6955;SDS011;50345;51.136;16.886;2022-12-18T04:04:33;27.35;;;15.73;;
6955;SDS011;50345;51.136;16.886;2022-12-18T04:07:00;26.23;;;14.52;;
6955;SDS011;50345;51.136;16.886;2022-12-18T04:09:27;25.17;;;14.90;;
6955;SDS011;50345;51.136;16.886;2022-12-18T04:11:53;26.75;;;15.15;;
6955;SDS011;50345;51.136;16.886;2022-12-18T04:14:18;37.23;;;18.57;;
6955;SDS011;50345;51.136;16.886;2022-12-18T04:16:44;26.50;;;13.30;;
6955;SDS011;50345;51.136;16.886;2022-12-18T04:19:09;34.03;;;16.30;;
6955;SDS011;50345;51.136;16.886;2022-12-18T04:21:35;32.93;;;15.63;;
6955;SDS011;50345;51.136;16.886;2022-12-18T04:24:01;22.33;;;12.70;;
6955;SDS011;50345;51.136;16.886;2022-12-18T04:26:26;21.70;;;13.60;;
6955;SDS011;50345;51.136;16.886;2022-12-18T04:28:52;26.53;;;13.93;;
6955;SDS011;50345;51.136;16.886;2022-12-18T04:31:17;28.83;;;14.57;;
6955;SDS011;50345;51.136;16.886;2022-12-18T04:33:43;30.57;;;16.60;;
6955;SDS011;50345;51.136;16.886;2022-12-18T04:36:08;27.50;;;13.90;;
6955;SDS011;50345;51.136;16.886;2022-12-18T04:38:34;28.57;;;14.77;;
6955;SDS011;50345;51.136;16.886;2022-12-18T04:40:59;27.13;;;15.07;;
6955;SDS011;50345;51.136;16.886;2022-12-18T04:43:25;24.30;;;12.67;;
6955;SDS011;50345;51.136;16.886;2022-12-18T04:45:51;26.40;;;12.90;;
6955;SDS011;50345;51.136;16.886;2022-12-18T04:48:16;26.20;;;14.40;;
6955;SDS011;50345;51.136;16.886;2022-12-18T04:50:42;27.87;;;13.27;;
6955;SDS011;50345;51.136;16.886;2022-12-18T04:53:07;26.70;;;13.83;;
6955;SDS011;50345;51.136;16.886;2022-12-18T04:55:33;22.63;;;13.40;;
6955;SDS011;50345;51.136;16.886;2022-12-18T04:57:58;26.43;;;13.13;;
6955;SDS011;50345;51.136;16.886;2022-12-18T05:00:24;27.90;;;14.50;;
6955;SDS011;50345;51.136;16.886;2022-12-18T05:02:49;30.70;;;15.30;;
6955;SDS011;50345;51.136;16.886;2022-12-18T05:05:15;25.43;;;14.23;;
6955;SDS011;50345;51.136;16.886;2022-12-18T05:07:41;26.23;;;13.30;;
6955;SDS011;50345;51.136;16.886;2022-12-18T05:10:07;24.67;;;15.77;;
6955;SDS011;50345;51.136;16.886;2022-12-18T05:12:33;22.73;;;14.00;;
6955;SDS011;50345;51.136;16.886;2022-12-18T05:14:58;22.20;;;13.53;;
6955;SDS011;50345;51.136;16.886;2022-12-18T05:17:24;19.27;;;12.90;;
6955;SDS011;50345;51.136;16.886;2022-12-18T05:19:49;27.97;;;15.93;;
6955;SDS011;50345;51.136;16.886;2022-12-18T05:22:15;27.23;;;16.13;;
6955;SDS011;50345;51.136;16.886;2022-12-18T05:24:40;25.90;;;13.50;;
6955;SDS011;50345;51.136;16.886;2022-12-18T05:27:06;23.73;;;12.43;;
6955;SDS011;50345;51.136;16.886;2022-12-18T05:29:32;23.47;;;13.80;;
6955;SDS011;50345;51.136;16.886;2022-12-18T05:31:57;28.60;;;14.20;;
6955;SDS011;50345;51.136;16.886;2022-12-18T05:34:23;25.47;;;13.87;;
6955;SDS011;50345;51.136;16.886;2022-12-18T05:36:48;28.40;;;14.73;;
6955;SDS011;50345;51.136;16.886;2022-12-18T05:39:14;22.53;;;13.70;;
6955;SDS011;50345;51.136;16.886;2022-12-18T05:41:39;27.67;;;14.67;;
6955;SDS011;50345;51.136;16.886;2022-12-18T05:44:05;28.50;;;15.83;;
6955;SDS011;50345;51.136;16.886;2022-12-18T05:46:30;29.03;;;16.23;;
6955;SDS011;50345;51.136;16.886;2022-12-18T05:48:58;25.57;;;14.30;;
6955;SDS011;50345;51.136;16.886;2022-12-18T05:51:24;28.33;;;13.98;;
6955;SDS011;50345;51.136;16.886;2022-12-18T05:53:50;23.80;;;13.97;;
6955;SDS011;50345;51.136;16.886;2022-12-18T05:56:17;25.00;;;16.03;;
6955;SDS011;50345;51.136;16.886;2022-12-18T05:58:44;28.63;;;15.52;;
6955;SDS011;50345;51.136;16.886;2022-12-18T06:01:15;30.55;;;15.98;;
6955;SDS011;50345;51.136;16.886;2022-12-18T06:03:43;24.40;;;15.57;;
6955;SDS011;50345;51.136;16.886;2022-12-18T06:06:13;25.37;;;14.43;;
6955;SDS011;50345;51.136;16.886;2022-12-18T06:08:43;30.83;;;15.60;;
6955;SDS011;50345;51.136;16.886;2022-12-18T06:11:09;22.17;;;15.20;;
6955;SDS011;50345;51.136;16.886;2022-12-18T06:13:34;35.97;;;18.00;;
6955;SDS011;50345;51.136;16.886;2022-12-18T06:16:04;29.30;;;16.67;;
6955;SDS011;50345;51.136;16.886;2022-12-18T06:18:31;35.33;;;17.67;;
6955;SDS011;50345;51.136;16.886;2022-12-18T06:20:57;39.90;;;21.38;;
6955;SDS011;50345;51.136;16.886;2022-12-18T06:23:24;36.58;;;19.10;;
6955;SDS011;50345;51.136;16.886;2022-12-18T06:25:49;40.22;;;20.02;;
6955;SDS011;50345;51.136;16.886;2022-12-18T06:28:15;40.10;;;21.75;;
6955;SDS011;50345;51.136;16.886;2022-12-18T06:30:45;42.10;;;24.60;;
6955;SDS011;50345;51.136;16.886;2022-12-18T06:33:11;42.20;;;24.35;;
6955;SDS011;50345;51.136;16.886;2022-12-18T06:35:37;38.50;;;20.63;;
6955;SDS011;50345;51.136;16.886;2022-12-18T06:38:02;43.10;;;22.00;;
6955;SDS011;50345;51.136;16.886;2022-12-18T06:40:28;41.92;;;22.63;;
6955;SDS011;50345;51.136;16.886;2022-12-18T06:42:54;38.73;;;22.23;;
6955;SDS011;50345;51.136;16.886;2022-12-18T06:45:20;39.40;;;21.87;;
6955;SDS011;50345;51.136;16.886;2022-12-18T06:47:45;42.00;;;24.20;;
6955;SDS011;50345;51.136;16.886;2022-12-18T06:50:11;42.60;;;24.30;;
6955;SDS011;50345;51.136;16.886;2022-12-18T06:52:37;39.47;;;21.33;;
6955;SDS011;50345;51.136;16.886;2022-12-18T06:55:04;43.97;;;24.55;;
6955;SDS011;50345;51.136;16.886;2022-12-18T06:57:30;42.47;;;23.90;;
6955;SDS011;50345;51.136;16.886;2022-12-18T06:59:56;39.10;;;22.00;;
6955;SDS011;50345;51.136;16.886;2022-12-18T07:02:21;39.97;;;21.10;;
6955;SDS011;50345;51.136;16.886;2022-12-18T07:04:47;42.57;;;23.70;;
6955;SDS011;50345;51.136;16.886;2022-12-18T07:07:15;38.78;;;21.65;;
6955;SDS011;50345;51.136;16.886;2022-12-18T07:09:41;38.03;;;23.07;;
6955;SDS011;50345;51.136;16.886;2022-12-18T07:12:06;43.27;;;24.17;;
6955;SDS011;50345;51.136;16.886;2022-12-18T07:14:32;47.97;;;23.55;;
6955;SDS011;50345;51.136;16.886;2022-12-18T07:16:58;38.10;;;22.13;;
6955;SDS011;50345;51.136;16.886;2022-12-18T07:19:24;49.07;;;25.40;;
6955;SDS011;50345;51.136;16.886;2022-12-18T07:21:50;42.33;;;23.10;;
6955;SDS011;50345;51.136;16.886;2022-12-18T07:24:16;43.95;;;23.75;;
6955;SDS011;50345;51.136;16.886;2022-12-18T07:26:41;44.83;;;24.70;;
6955;SDS011;50345;51.136;16.886;2022-12-18T07:29:07;40.37;;;26.00;;
6955;SDS011;50345;51.136;16.886;2022-12-18T07:31:33;48.67;;;26.90;;
6955;SDS011;50345;51.136;16.886;2022-12-18T07:33:59;43.20;;;23.80;;
6955;SDS011;50345;51.136;16.886;2022-12-18T07:36:24;35.43;;;21.30;;
6955;SDS011;50345;51.136;16.886;2022-12-18T07:38:50;41.93;;;24.87;;
6955;SDS011;50345;51.136;16.886;2022-12-18T07:41:17;36.22;;;21.63;;
6955;SDS011;50345;51.136;16.886;2022-12-18T07:43:43;34.70;;;19.60;;
6955;SDS011;50345;51.136;16.886;2022-12-18T07:46:10;30.83;;;17.67;;
6955;SDS011;50345;51.136;16.886;2022-12-18T07:48:38;35.25;;;17.10;;
6955;SDS011;50345;51.136;16.886;2022-12-18T07:51:05;24.95;;;14.40;;
6955;SDS011;50345;51.136;16.886;2022-12-18T07:53:32;26.50;;;15.65;;
6955;SDS011;50345;51.136;16.886;2022-12-18T07:55:59;27.65;;;16.58;;
6955;SDS011;50345;51.136;16.886;2022-12-18T07:58:27;28.08;;;16.77;;
6955;SDS011;50345;51.136;16.886;2022-12-18T08:00:53;27.85;;;15.50;;
6955;SDS011;50345;51.136;16.886;2022-12-18T08:03:18;22.63;;;15.17;;
6955;SDS011;50345;51.136;16.886;2022-12-18T08:05:44;29.70;;;16.57;;
6955;SDS011;50345;51.136;16.886;2022-12-18T08:08:10;26.40;;;14.50;;
6955;SDS011;50345;51.136;16.886;2022-12-18T08:10:37;23.77;;;15.07;;
6955;SDS011;50345;51.136;16.886;2022-12-18T08:13:03;26.88;;;16.23;;
6955;SDS011;50345;51.136;16.886;2022-12-18T08:15:28;36.20;;;18.97;;
6955;SDS011;50345;51.136;16.886;2022-12-18T08:17:56;32.37;;;18.67;;
6955;SDS011;50345;51.136;16.886;2022-12-18T08:20:22;27.90;;;18.75;;
6955;SDS011;50345;51.136;16.886;2022-12-18T08:22:47;34.00;;;19.73;;
6955;SDS011;50345;51.136;16.886;2022-12-18T08:25:13;35.07;;;18.47;;
6955;SDS011;50345;51.136;16.886;2022-12-18T08:27:38;29.00;;;18.07;;
6955;SDS011;50345;51.136;16.886;2022-12-18T08:30:04;34.27;;;18.60;;
6955;SDS011;50345;51.136;16.886;2022-12-18T08:32:30;31.67;;;18.92;;
6955;SDS011;50345;51.136;16.886;2022-12-18T08:34:57;34.88;;;22.10;;
6955;SDS011;50345;51.136;16.886;2022-12-18T08:37:23;45.23;;;22.70;;
6955;SDS011;50345;51.136;16.886;2022-12-18T08:39:49;31.93;;;21.77;;
6955;SDS011;50345;51.136;16.886;2022-12-18T08:42:14;35.90;;;22.20;;
6955;SDS011;50345;51.136;16.886;2022-12-18T08:44:58;31.50;;;19.73;;
6955;SDS011;50345;51.136;16.886;2022-12-18T08:47:24;30.33;;;19.30;;
6955;SDS011;50345;51.136;16.886;2022-12-18T08:49:50;32.05;;;19.98;;
6955;SDS011;50345;51.136;16.886;2022-12-18T08:52:16;35.27;;;21.70;;
6955;SDS011;50345;51.136;16.886;2022-12-18T08:54:42;39.43;;;22.40;;
6955;SDS011;50345;51.136;16.886;2022-12-18T08:57:07;34.73;;;21.33;;
6955;SDS011;50345;51.136;16.886;2022-12-18T08:59:33;36.33;;;19.80;;
6955;SDS011;50345;51.136;16.886;2022-12-18T09:01:59;40.80;;;23.57;;
6955;SDS011;50345;51.136;16.886;2022-12-18T09:04:24;31.97;;;20.33;;
6955;SDS011;50345;51.136;16.886;2022-12-18T09:06:50;39.23;;;22.93;;
6955;SDS011;50345;51.136;16.886;2022-12-18T09:09:15;39.80;;;22.40;;
6955;SDS011;50345;51.136;16.886;2022-12-18T09:11:41;37.57;;;21.50;;
6955;SDS011;50345;51.136;16.886;2022-12-18T09:14:06;39.30;;;21.67;;
6955;SDS011;50345;51.136;16.886;2022-12-18T09:16:33;37.55;;;21.13;;
6955;SDS011;50345;51.136;16.886;2022-12-18T09:19:00;40.47;;;22.10;;
6955;SDS011;50345;51.136;16.886;2022-12-18T09:21:27;34.50;;;20.40;;
6955;SDS011;50345;51.136;16.886;2022-12-18T09:23:55;36.53;;;23.02;;
6955;SDS011;50345;51.136;16.886;2022-12-18T09:26:21;32.28;;;21.48;;
6955;SDS011;50345;51.136;16.886;2022-12-18T09:28:48;27.60;;;18.63;;
6955;SDS011;50345;51.136;16.886;2022-12-18T09:31:14;34.92;;;21.33;;
6955;SDS011;50345;51.136;16.886;2022-12-18T09:33:40;30.95;;;19.30;;
6955;SDS011;50345;51.136;16.886;2022-12-18T09:36:06;33.38;;;19.67;;
6955;SDS011;50345;51.136;16.886;2022-12-18T09:38:34;35.35;;;21.35;;
6955;SDS011;50345;51.136;16.886;2022-12-18T09:41:02;29.55;;;19.60;;
6955;SDS011;50345;51.136;16.886;2022-12-18T09:43:46;33.35;;;19.75;;
6955;SDS011;50345;51.136;16.886;2022-12-18T09:46:49;32.63;;;20.80;;
6955;SDS011;50345;51.136;16.886;2022-12-18T09:49:11;34.75;;;20.33;;
6955;SDS011;50345;51.136;16.886;2022-12-18T09:51:50;37.10;;;20.60;;
6955;SDS011;50345;51.136;16.886;2022-12-18T09:54:24;32.33;;;20.52;;
6955;SDS011;50345;51.136;16.886;2022-12-18T09:56:55;34.83;;;21.80;;
6955;SDS011;50345;51.136;16.886;2022-12-18T09:59:25;34.70;;;20.40;;
6955;SDS011;50345;51.136;16.886;2022-12-18T10:01:56;33.78;;;20.05;;
6955;SDS011;50345;51.136;16.886;2022-12-18T10:04:21;39.80;;;22.20;;
6955;SDS011;50345;51.136;16.886;2022-12-18T10:06:55;41.08;;;24.83;;
6955;SDS011;50345;51.136;16.886;2022-12-18T10:12:43;37.50;;;21.05;;
6955;SDS011;50345;51.136;16.886;2022-12-18T10:15:33;38.60;;;21.02;;
6955;SDS011;50345;51.136;16.886;2022-12-18T10:21:00;34.05;;;19.77;;
6955;SDS011;50345;51.136;16.886;2022-12-18T10:26:16;35.55;;;21.30;;
6955;SDS011;50345;51.136;16.886;2022-12-18T10:28:42;45.57;;;27.73;;
6955;SDS011;50345;51.136;16.886;2022-12-18T10:31:22;38.10;;;21.70;;
6955;SDS011;50345;51.136;16.886;2022-12-18T10:33:49;34.50;;;21.67;;
6955;SDS011;50345;51.136;16.886;2022-12-18T10:36:14;34.28;;;21.70;;
6955;SDS011;50345;51.136;16.886;2022-12-18T10:38:40;34.77;;;20.47;;
6955;SDS011;50345;51.136;16.886;2022-12-18T10:41:08;38.00;;;23.37;;
6955;SDS011;50345;51.136;16.886;2022-12-18T10:46:39;35.88;;;21.50;;
6955;SDS011;50345;51.136;16.886;2022-12-18T10:49:05;35.67;;;22.23;;
6955;SDS011;50345;51.136;16.886;2022-12-18T10:51:43;41.85;;;22.83;;
6955;SDS011;50345;51.136;16.886;2022-12-18T10:54:14;39.43;;;21.50;;
6955;SDS011;50345;51.136;16.886;2022-12-18T10:56:47;37.22;;;23.50;;
6955;SDS011;50345;51.136;16.886;2022-12-18T10:59:13;37.17;;;22.30;;
6955;SDS011;50345;51.136;16.886;2022-12-18T11:01:53;43.97;;;23.90;;
6955;SDS011;50345;51.136;16.886;2022-12-18T11:04:27;35.10;;;22.63;;
6955;SDS011;50345;51.136;16.886;2022-12-18T11:06:58;36.47;;;21.15;;
6955;SDS011;50345;51.136;16.886;2022-12-18T11:09:30;45.60;;;26.73;;
6955;SDS011;50345;51.136;16.886;2022-12-18T11:11:58;45.55;;;28.10;;
6955;SDS011;50345;51.136;16.886;2022-12-18T11:14:33;38.05;;;23.67;;
6955;SDS011;50345;51.136;16.886;2022-12-18T11:16:59;52.08;;;25.73;;
6955;SDS011;50345;51.136;16.886;2022-12-18T11:21:55;42.97;;;24.98;;
6955;SDS011;50345;51.136;16.886;2022-12-18T11:27:00;44.45;;;25.05;;
6955;SDS011;50345;51.136;16.886;2022-12-18T11:29:32;54.92;;;30.92;;
6955;SDS011;50345;51.136;16.886;2022-12-18T11:34:41;40.25;;;24.08;;
6955;SDS011;50345;51.136;16.886;2022-12-18T11:37:15;46.05;;;26.33;;
6955;SDS011;50345;51.136;16.886;2022-12-18T11:39:52;47.47;;;27.08;;
6955;SDS011;50345;51.136;16.886;2022-12-18T11:42:35;41.95;;;22.73;;
6955;SDS011;50345;51.136;16.886;2022-12-18T11:47:43;38.67;;;22.77;;
6955;SDS011;50345;51.136;16.886;2022-12-18T11:50:17;44.03;;;22.77;;
6955;SDS011;50345;51.136;16.886;2022-12-18T11:52:49;36.70;;;21.35;;
6955;SDS011;50345;51.136;16.886;2022-12-18T11:55:16;44.67;;;22.67;;
6955;SDS011;50345;51.136;16.886;2022-12-18T12:00:21;27.83;;;16.80;;
6955;SDS011;50345;51.136;16.886;2022-12-18T12:16:52;34.95;;;18.90;;
6955;SDS011;50345;51.136;16.886;2022-12-18T12:22:14;43.03;;;23.92;;
6955;SDS011;50345;51.136;16.886;2022-12-18T12:35:49;45.97;;;23.92;;
6955;SDS011;50345;51.136;16.886;2022-12-18T12:38:28;44.13;;;19.85;;
6955;SDS011;50345;51.136;16.886;2022-12-18T12:41:05;46.10;;;24.50;;
6955;SDS011;50345;51.136;16.886;2022-12-18T12:43:55;39.60;;;24.10;;
6955;SDS011;50345;51.136;16.886;2022-12-18T12:46:23;44.53;;;22.05;;
6955;SDS011;50345;51.136;16.886;2022-12-18T12:51:22;44.38;;;23.42;;
6955;SDS011;50345;51.136;16.886;2022-12-18T12:53:51;47.38;;;23.63;;
6955;SDS011;50345;51.136;16.886;2022-12-18T12:56:19;47.70;;;23.40;;
6955;SDS011;50345;51.136;16.886;2022-12-18T12:58:58;50.80;;;26.85;;
6955;SDS011;50345;51.136;16.886;2022-12-18T13:01:48;48.17;;;26.05;;
6955;SDS011;50345;51.136;16.886;2022-12-18T13:04:38;47.97;;;26.75;;
6955;SDS011;50345;51.136;16.886;2022-12-18T13:10:11;45.95;;;25.38;;
6955;SDS011;50345;51.136;16.886;2022-12-18T13:15:48;50.13;;;26.15;;
6955;SDS011;50345;51.136;16.886;2022-12-18T13:18:29;53.20;;;28.90;;
6955;SDS011;50345;51.136;16.886;2022-12-18T13:34:14;54.55;;;27.02;;
6955;SDS011;50345;51.136;16.886;2022-12-18T13:36:48;49.63;;;27.98;;
6955;SDS011;50345;51.136;16.886;2022-12-18T13:41:46;61.15;;;34.63;;
6955;SDS011;50345;51.136;16.886;2022-12-18T13:44:32;68.93;;;32.00;;
6955;SDS011;50345;51.136;16.886;2022-12-18T13:47:05;52.35;;;30.23;;
6955;SDS011;50345;51.136;16.886;2022-12-18T13:49:50;48.90;;;28.73;;
6955;SDS011;50345;51.136;16.886;2022-12-18T13:52:20;56.83;;;28.20;;
6955;SDS011;50345;51.136;16.886;2022-12-18T13:54:53;47.95;;;27.23;;
6955;SDS011;50345;51.136;16.886;2022-12-18T13:57:28;43.10;;;23.40;;
6955;SDS011;50345;51.136;16.886;2022-12-18T13:59:54;51.70;;;26.85;;
6955;SDS011;50345;51.136;16.886;2022-12-18T14:02:21;47.25;;;27.23;;
6955;SDS011;50345;51.136;16.886;2022-12-18T14:04:49;47.55;;;27.00;;
6955;SDS011;50345;51.136;16.886;2022-12-18T14:07:16;53.92;;;28.73;;
6955;SDS011;50345;51.136;16.886;2022-12-18T14:09:57;51.25;;;26.95;;
6955;SDS011;50345;51.136;16.886;2022-12-18T14:12:25;51.78;;;28.65;;
6955;SDS011;50345;51.136;16.886;2022-12-18T14:15:21;58.58;;;28.95;;
6955;SDS011;50345;51.136;16.886;2022-12-18T14:20:44;52.63;;;27.98;;
6955;SDS011;50345;51.136;16.886;2022-12-18T14:23:31;56.65;;;29.88;;
6955;SDS011;50345;51.136;16.886;2022-12-18T14:28:50;60.30;;;31.95;;
6955;SDS011;50345;51.136;16.886;2022-12-18T14:31:20;54.20;;;28.47;;
6955;SDS011;50345;51.136;16.886;2022-12-18T14:33:52;56.13;;;29.77;;
6955;SDS011;50345;51.136;16.886;2022-12-18T14:36:19;59.35;;;30.27;;
6955;SDS011;50345;51.136;16.886;2022-12-18T14:38:48;52.50;;;28.40;;
6955;SDS011;50345;51.136;16.886;2022-12-18T14:41:15;55.78;;;26.85;;
6955;SDS011;50345;51.136;16.886;2022-12-18T14:43:44;53.45;;;30.20;;
6955;SDS011;50345;51.136;16.886;2022-12-18T14:46:32;50.83;;;28.88;;
6955;SDS011;50345;51.136;16.886;2022-12-18T14:52:44;47.22;;;25.42;;
6955;SDS011;50345;51.136;16.886;2022-12-18T14:54:47;57.60;;;28.80;;
6955;SDS011;50345;51.136;16.886;2022-12-18T14:59:49;52.80;;;27.48;;
6955;SDS011;50345;51.136;16.886;2022-12-18T15:02:22;52.80;;;26.92;;
6955;SDS011;50345;51.136;16.886;2022-12-18T15:04:59;53.40;;;27.50;;
6955;SDS011;50345;51.136;16.886;2022-12-18T15:07:26;42.60;;;25.23;;
6955;SDS011;50345;51.136;16.886;2022-12-18T15:20:56;58.00;;;27.73;;
6955;SDS011;50345;51.136;16.886;2022-12-18T15:26:14;54.20;;;24.65;;
6955;SDS011;50345;51.136;16.886;2022-12-18T15:28:45;56.03;;;27.70;;
6955;SDS011;50345;51.136;16.886;2022-12-18T15:33:39;77.33;;;29.33;;
6955;SDS011;50345;51.136;16.886;2022-12-18T15:36:11;52.03;;;24.73;;
6955;SDS011;50345;51.136;16.886;2022-12-18T15:38:38;45.67;;;25.05;;
6955;SDS011;50345;51.136;16.886;2022-12-18T15:41:04;51.90;;;23.10;;
6955;SDS011;50345;51.136;16.886;2022-12-18T15:43:30;45.83;;;23.40;;
6955;SDS011;50345;51.136;16.886;2022-12-18T15:45:58;53.55;;;24.70;;
6955;SDS011;50345;51.136;16.886;2022-12-18T15:48:29;49.10;;;26.05;;
6955;SDS011;50345;51.136;16.886;2022-12-18T15:50:55;56.47;;;25.50;;
6955;SDS011;50345;51.136;16.886;2022-12-18T15:53:22;52.45;;;26.33;;
6955;SDS011;50345;51.136;16.886;2022-12-18T15:55:50;43.58;;;24.58;;
6955;SDS011;50345;51.136;16.886;2022-12-18T15:58:34;41.67;;;25.67;;
6955;SDS011;50345;51.136;16.886;2022-12-18T16:01:00;45.77;;;24.33;;
6955;SDS011;50345;51.136;16.886;2022-12-18T16:03:26;48.60;;;26.45;;
6955;SDS011;50345;51.136;16.886;2022-12-18T16:05:52;45.53;;;24.63;;
6955;SDS011;50345;51.136;16.886;2022-12-18T16:08:17;41.83;;;22.97;;
6955;SDS011;50345;51.136;16.886;2022-12-18T16:10:43;50.17;;;25.23;;
6955;SDS011;50345;51.136;16.886;2022-12-18T16:13:12;52.40;;;25.53;;
6955;SDS011;50345;51.136;16.886;2022-12-18T16:15:41;50.50;;;24.65;;
6955;SDS011;50345;51.136;16.886;2022-12-18T16:18:07;54.17;;;26.70;;
6955;SDS011;50345;51.136;16.886;2022-12-18T16:20:32;60.20;;;29.07;;
6955;SDS011;50345;51.136;16.886;2022-12-18T16:22:58;53.03;;;27.83;;
6955;SDS011;50345;51.136;16.886;2022-12-18T16:25:25;52.33;;;26.57;;
6955;SDS011;50345;51.136;16.886;2022-12-18T16:27:52;48.20;;;26.13;;
6955;SDS011;50345;51.136;16.886;2022-12-18T16:30:22;53.45;;;27.83;;
6955;SDS011;50345;51.136;16.886;2022-12-18T16:32:51;56.25;;;28.08;;
6955;SDS011;50345;51.136;16.886;2022-12-18T16:35:16;55.00;;;31.30;;
6955;SDS011;50345;51.136;16.886;2022-12-18T16:37:42;52.70;;;29.30;;
6955;SDS011;50345;51.136;16.886;2022-12-18T16:40:09;55.73;;;30.77;;
6955;SDS011;50345;51.136;16.886;2022-12-18T16:42:37;50.33;;;26.98;;